Terminal Aerodrome Forecast
Issued by NWS Pittsburgh, PA

Home | Current Version | Previous Version | Text Only | Print | Product List | Glossary On
Versions: 1 2 3 4 5 6 7 8 9 10 11 12 13 14 15 16 17 18 19 20 21 22 23 24 25 26 27 28
142
FTUS41 KPBZ 091132
TAFPIT
TAF
KPIT 091132Z 0912/1018 23004KT 2SM -SN BR BKN006 OVC015
      TEMPO 0914/0916 1SM -SN BKN006
     FM091600 27005KT 3SM -SHSN OVC010
     FM100100 30008KT P6SM BKN015
     FM101500 26010KT 5SM -SHSN BKN015=

USA.gov is the U.S. government's official web portal to all federal, state and local government web resources and services.